createdAt,value
2018-09-23T00:01:17.867Z,80.22
2018-09-23T00:03:47.256Z,79.82
2018-09-23T00:06:16.135Z,80.03
2018-09-23T00:08:45.059Z,79.67
2018-09-23T00:11:13.813Z,79.44
2018-09-23T00:13:42.617Z,79.65
2018-09-23T00:16:12.052Z,80.02
2018-09-23T00:18:41.742Z,79.29
2018-09-23T00:21:10.993Z,79.98
2018-09-23T00:23:40.608Z,80.24
2018-09-23T00:26:09.690Z,80.59
2018-09-23T00:28:39.506Z,80.23
2018-09-23T00:31:08.265Z,80.11
2018-09-23T00:33:37.015Z,80.05
2018-09-23T00:36:05.840Z,79.91
2018-09-23T00:38:34.709Z,79.75
2018-09-23T00:41:03.567Z,79.91
2018-09-23T00:43:32.548Z,79.21
2018-09-23T00:46:01.445Z,79.69
2018-09-23T00:48:30.466Z,80.21
2018-09-23T00:50:59.198Z,80.37
2018-09-23T00:53:28.010Z,80.85
2018-09-23T00:55:57.106Z,80.74
2018-09-23T00:58:26.274Z,80.75
2018-09-23T01:00:55.539Z,80.50
2018-09-23T01:03:24.351Z,80.56
2018-09-23T01:05:53.589Z,80.46
2018-09-23T01:08:22.471Z,80.68
2018-09-23T01:10:51.276Z,80.69
2018-09-23T01:13:22.342Z,80.56
2018-09-23T01:15:51.076Z,79.97
2018-09-23T01:18:20.250Z,80.47
2018-09-23T01:20:49.063Z,80.13
2018-09-23T01:23:18.352Z,80.36
2018-09-23T01:25:47.231Z,80.21
2018-09-23T01:28:17.151Z,80.96
2018-09-23T01:30:46.159Z,80.36
2018-09-23T01:33:16.055Z,80.42
2018-09-23T01:35:45.053Z,79.81
2018-09-23T01:38:14.886Z,80.33
2018-09-23T01:40:45.330Z,80.50
2018-09-23T01:43:14.992Z,80.59
2018-09-23T01:45:44.395Z,81.20
2018-09-23T01:48:13.893Z,80.77
2018-09-23T01:50:44.630Z,80.69
2018-09-23T01:53:13.870Z,81.12
2018-09-23T01:55:42.582Z,81.70
2018-09-23T01:58:11.332Z,81.50
2018-09-23T02:00:40.357Z,81.24
2018-09-23T02:03:09.181Z,81.04
2018-09-23T02:05:38.608Z,81.38
2018-09-23T02:08:07.822Z,81.53
2018-09-23T02:10:36.649Z,80.60
2018-09-23T02:13:06.386Z,81.12
2018-09-23T02:15:36.096Z,81.25
2018-09-23T02:18:04.985Z,80.76
2018-09-23T02:20:33.811Z,80.92
2018-09-23T02:23:04.216Z,80.98
2018-09-23T02:25:33.399Z,80.98
2018-09-23T02:28:03.742Z,81.09
2018-09-23T02:30:33.466Z,81.45
2018-09-23T02:33:02.612Z,81.62
2018-09-23T02:35:31.414Z,81.26
2018-09-23T02:38:00.450Z,82.11
2018-09-23T02:40:29.144Z,81.42
2018-09-23T02:42:58.296Z,82.11
2018-09-23T02:45:27.460Z,82.45
2018-09-23T02:47:56.868Z,82.13
2018-09-23T02:50:26.377Z,82.70
2018-09-23T02:52:55.106Z,82.20
2018-09-23T02:55:24.345Z,82.27
2018-09-23T02:57:53.816Z,82.40
2018-09-23T03:00:22.523Z,82.29
2018-09-23T03:02:51.885Z,81.66
2018-09-23T03:05:21.027Z,81.63
2018-09-23T03:07:50.431Z,81.41
2018-09-23T03:10:19.122Z,82.04
2018-09-23T03:12:47.980Z,82.39
2018-09-23T03:15:17.021Z,81.85
2018-09-23T03:17:45.739Z,82.03
2018-09-23T03:20:14.743Z,82.12
2018-09-23T03:22:43.562Z,82.74
2018-09-23T03:25:12.271Z,82.46
2018-09-23T03:27:40.979Z,81.61
2018-09-23T03:30:10.155Z,82.23
2018-09-23T03:32:38.947Z,82.21
2018-09-23T03:35:08.147Z,82.80
2018-09-23T03:37:37.625Z,82.76
2018-09-23T03:40:07.986Z,82.88
2018-09-23T03:42:37.731Z,82.75
2018-09-23T03:45:08.757Z,82.42
2018-09-23T03:47:39.018Z,82.61
2018-09-23T03:50:10.343Z,82.52
2018-09-23T03:52:40.153Z,82.57
2018-09-23T03:55:09.129Z,82.44
2018-09-23T03:57:39.061Z,82.50
2018-09-23T04:00:07.935Z,82.86
2018-09-23T04:02:37.883Z,83.10
2018-09-23T04:05:07.968Z,82.91
2018-09-23T04:07:37.161Z,82.63
2018-09-23T04:10:07.103Z,82.75
2018-09-23T04:12:37.071Z,82.34
2018-09-23T04:15:07.964Z,82.32
2018-09-23T04:17:38.208Z,82.20
2018-09-23T04:20:07.963Z,82.40
2018-09-23T04:22:41.482Z,82.10
2018-09-23T04:25:10.910Z,82.77
2018-09-23T04:27:40.594Z,82.20
2018-09-23T04:30:09.916Z,81.68
2018-09-23T04:32:39.101Z,81.97
2018-09-23T04:35:08.113Z,82.58
2018-09-23T04:37:37.257Z,82.58
2018-09-23T04:40:06.572Z,82.58
2018-09-23T04:42:36.297Z,82.52
2018-09-23T04:45:06.393Z,82.34
2018-09-23T04:47:36.174Z,82.85
2018-09-23T04:50:06.028Z,82.47
2018-09-23T04:52:34.917Z,82.59
2018-09-23T04:55:04.299Z,82.46
2018-09-23T04:57:33.998Z,82.22
2018-09-23T05:00:03.870Z,82.67
2018-09-23T05:02:33.313Z,82.84
2018-09-23T05:05:03.430Z,82.95
2018-09-23T05:07:32.476Z,82.41
2018-09-23T05:10:01.577Z,82.18
2018-09-23T05:12:30.294Z,82.47
2018-09-23T05:14:59.864Z,82.20
2018-09-23T05:17:28.559Z,82.41
2018-09-23T05:19:57.671Z,82.79
2018-09-23T05:22:26.587Z,82.38
2018-09-23T05:24:55.747Z,82.75
2018-09-23T05:27:24.811Z,82.09
2018-09-23T05:29:53.720Z,82.21
2018-09-23T05:32:22.480Z,81.67
2018-09-23T05:34:51.532Z,82.46
2018-09-23T05:37:20.763Z,81.65
2018-09-23T05:39:50.127Z,81.45
2018-09-23T05:42:19.954Z,81.25
2018-09-23T05:44:49.373Z,81.09
2018-09-23T05:47:18.169Z,81.00
2018-09-23T05:49:48.078Z,81.12
2018-09-23T05:52:18.444Z,81.52
2018-09-23T05:54:47.254Z,81.82
2018-09-23T05:57:16.102Z,81.03
2018-09-23T05:59:45.062Z,80.89
2018-09-23T06:02:14.691Z,81.29
2018-09-23T06:04:44.379Z,81.35
2018-09-23T06:07:14.436Z,80.84
2018-09-23T06:09:43.406Z,81.46
2018-09-23T06:12:12.488Z,81.00
2018-09-23T06:14:41.313Z,81.58
2018-09-23T06:17:10.505Z,82.24
2018-09-23T06:19:39.249Z,82.31
2018-09-23T06:22:08.961Z,82.59
2018-09-23T06:24:38.367Z,81.92
2018-09-23T06:27:08.540Z,82.17
2018-09-23T06:29:37.603Z,81.35
2018-09-23T06:32:11.043Z,80.75
2018-09-23T06:34:40.248Z,81.16
2018-09-23T06:37:09.955Z,80.22
2018-09-23T06:39:38.825Z,79.56
2018-09-23T06:42:07.897Z,80.68
2018-09-23T06:44:38.808Z,80.35
2018-09-23T06:47:09.058Z,80.42
2018-09-23T06:49:39.075Z,81.06
2018-09-23T06:52:16.569Z,80.28
2018-09-23T06:54:45.505Z,80.52
2018-09-23T06:57:14.511Z,81.19
2018-09-23T06:59:44.538Z,80.53
2018-09-23T07:02:13.362Z,79.54
2018-09-23T07:04:42.353Z,80.06
2018-09-23T07:07:11.168Z,79.55
2018-09-23T07:09:40.412Z,79.17
2018-09-23T07:12:10.122Z,77.68
2018-09-23T07:14:40.425Z,77.09
2018-09-23T07:17:09.945Z,76.86
2018-09-23T07:19:39.535Z,75.98
2018-09-23T07:22:09.039Z,75.45
2018-09-23T07:24:38.470Z,75.08
2018-09-23T07:27:07.664Z,75.46
2018-09-23T07:29:36.758Z,74.78
2018-09-23T07:32:06.229Z,75.69
2018-09-23T07:34:35.678Z,75.45
2018-09-23T07:37:05.129Z,75.15
2018-09-23T07:39:33.960Z,74.84
2018-09-23T07:42:02.789Z,75.93
2018-09-23T07:44:31.844Z,74.65
2018-09-23T07:47:00.939Z,75.16
2018-09-23T07:49:29.987Z,75.67
2018-09-23T07:51:59.381Z,75.13
2018-09-23T07:54:28.667Z,74.75
2018-09-23T07:56:58.453Z,75.60
2018-09-23T07:59:27.777Z,74.07
2018-09-23T08:01:56.934Z,74.53
2018-09-23T08:04:26.137Z,74.46
2018-09-23T08:06:55.792Z,74.72
2018-09-23T08:09:24.803Z,73.98
2018-09-23T08:11:53.832Z,73.61
2018-09-23T08:14:23.159Z,72.46
2018-09-23T08:16:53.224Z,72.62
2018-09-23T08:19:22.535Z,72.05
2018-09-23T08:21:51.927Z,71.97
2018-09-23T08:24:21.261Z,71.36
2018-09-23T08:26:50.630Z,70.86
2018-09-23T08:29:19.930Z,70.80
2018-09-23T08:31:49.116Z,71.41
2018-09-23T08:34:18.161Z,72.22
2018-09-23T08:36:47.129Z,71.76
2018-09-23T08:39:15.894Z,72.41
2018-09-23T08:41:44.944Z,71.23
2018-09-23T08:44:13.937Z,72.43
2018-09-23T08:46:42.974Z,70.04
2018-09-23T08:49:12.110Z,70.26
2018-09-23T08:51:41.260Z,69.27
2018-09-23T08:54:11.540Z,69.50
2018-09-23T08:56:40.850Z,68.99
2018-09-23T08:59:09.699Z,68.75
2018-09-23T09:01:38.866Z,67.10
2018-09-23T09:04:08.012Z,65.97
2018-09-23T09:06:37.806Z,65.37
2018-09-23T09:09:07.899Z,65.85
2018-09-23T09:11:37.601Z,66.07
2018-09-23T09:14:06.770Z,66.04
2018-09-23T09:16:35.878Z,65.06
2018-09-23T09:19:05.552Z,63.91
2018-09-23T09:21:34.841Z,63.91
2018-09-23T09:24:04.059Z,63.33
2018-09-23T09:26:33.188Z,64.66
2018-09-23T09:29:05.235Z,64.28
2018-09-23T09:31:34.560Z,63.62
2018-09-23T09:34:03.854Z,63.28
2018-09-23T09:36:32.876Z,62.27
2018-09-23T09:39:01.928Z,63.44
2018-09-23T09:41:30.962Z,62.76
2018-09-23T09:44:00.364Z,61.86
2018-09-23T09:46:29.435Z,63.42
2018-09-23T09:48:58.637Z,59.31
2018-09-23T09:51:27.702Z,60.64
2018-09-23T09:53:56.765Z,61.12
2018-09-23T09:56:26.263Z,60.70
2018-09-23T09:58:55.145Z,60.71
2018-09-23T10:01:23.958Z,59.01
2018-09-23T10:03:52.900Z,59.83
2018-09-23T10:06:21.790Z,58.93
2018-09-23T10:08:50.831Z,59.31
2018-09-23T10:11:20.008Z,58.75
2018-09-23T10:13:48.845Z,59.42
2018-09-23T10:16:17.787Z,58.05
2018-09-23T10:18:46.700Z,58.97
2018-09-23T10:21:15.613Z,59.03
2018-09-23T10:23:44.683Z,59.30
2018-09-23T10:26:13.654Z,58.78
2018-09-23T10:28:42.641Z,58.28
2018-09-23T10:31:11.706Z,57.86
2018-09-23T10:33:40.689Z,57.50
2018-09-23T10:36:09.771Z,59.04
2018-09-23T10:38:38.768Z,58.13
2018-09-23T10:41:07.703Z,57.65
2018-09-23T10:43:36.637Z,57.29
2018-09-23T10:46:05.789Z,58.49
2018-09-23T10:48:34.539Z,58.05
2018-09-23T10:51:03.632Z,57.42
2018-09-23T10:53:32.576Z,57.78
2018-09-23T10:56:01.620Z,58.71
2018-09-23T10:58:30.446Z,60.31
2018-09-23T11:00:59.478Z,60.38
2018-09-23T11:03:29.257Z,60.46
2018-09-23T11:05:58.123Z,61.77
2018-09-23T11:08:26.927Z,61.57
2018-09-23T11:10:56.440Z,61.76
2018-09-23T11:13:25.640Z,62.47
2018-09-23T11:15:58.738Z,62.61
2018-09-23T11:18:27.700Z,62.50
2018-09-23T11:20:57.846Z,60.58
2018-09-23T11:23:27.244Z,61.95
2018-09-23T11:25:57.001Z,62.75
2018-09-23T11:28:27.216Z,62.08
2018-09-23T11:30:56.464Z,61.80
2018-09-23T11:33:25.581Z,62.94
2018-09-23T11:35:54.552Z,62.21
2018-09-23T11:38:23.437Z,63.05
2018-09-23T11:40:53.012Z,64.02
2018-09-23T11:43:22.143Z,65.13
2018-09-23T11:45:51.585Z,66.07
2018-09-23T11:48:20.626Z,66.08
2018-09-23T11:50:49.799Z,67.13
2018-09-23T11:53:18.562Z,68.28
2018-09-23T11:55:47.774Z,70.21
2018-09-23T11:58:16.838Z,70.72
2018-09-23T12:00:46.118Z,70.81
2018-09-23T12:03:15.209Z,72.07
2018-09-23T12:05:44.048Z,72.29
2018-09-23T12:08:13.219Z,72.53
2018-09-23T12:10:42.753Z,72.57
2018-09-23T12:13:11.736Z,73.23
2018-09-23T12:15:40.619Z,72.16
2018-09-23T12:18:09.549Z,72.49
2018-09-23T12:20:38.603Z,74.16
2018-09-23T12:23:08.194Z,74.28
2018-09-23T12:25:37.603Z,74.77
2018-09-23T12:28:07.236Z,75.77
2018-09-23T12:30:36.269Z,75.61
2018-09-23T12:33:05.285Z,75.45
2018-09-23T12:35:34.200Z,76.65
2018-09-23T12:38:03.076Z,76.78
2018-09-23T12:40:32.414Z,76.64
2018-09-23T12:43:02.036Z,76.62
2018-09-23T12:45:31.045Z,77.35
2018-09-23T12:47:59.994Z,77.35
2018-09-23T12:50:28.860Z,77.50
2018-09-23T12:52:58.517Z,77.21
2018-09-23T12:55:27.477Z,78.59
2018-09-23T12:57:56.621Z,78.66
2018-09-23T13:00:25.739Z,80.47
2018-09-23T13:02:57.480Z,80.00
2018-09-23T13:05:27.588Z,80.40
2018-09-23T13:07:58.355Z,81.39
2018-09-23T13:10:27.630Z,82.04
2018-09-23T13:12:56.515Z,81.93
2018-09-23T13:15:25.777Z,81.98
2018-09-23T13:17:55.010Z,82.46
2018-09-23T13:20:23.906Z,82.05
2018-09-23T13:22:52.854Z,83.24
2018-09-23T13:25:21.654Z,82.70
2018-09-23T13:27:50.655Z,83.44
2018-09-23T13:30:19.904Z,85.03
2018-09-23T13:32:49.489Z,84.56
2018-09-23T13:35:18.585Z,84.75
2018-09-23T13:37:48.059Z,85.11
2018-09-23T13:40:17.245Z,85.17
2018-09-23T13:42:46.072Z,85.41
2018-09-23T13:45:15.491Z,85.64
2018-09-23T13:47:44.351Z,85.23
2018-09-23T13:50:13.341Z,84.72
2018-09-23T13:52:42.416Z,84.28
2018-09-23T13:55:11.305Z,84.12
2018-09-23T13:57:40.251Z,84.67
2018-09-23T14:00:09.258Z,85.39
2018-09-23T14:02:38.176Z,85.86
2018-09-23T14:05:07.043Z,87.46
2018-09-23T14:07:35.890Z,86.43
2018-09-23T14:10:05.159Z,86.84
2018-09-23T14:12:34.482Z,86.44
2018-09-23T14:15:03.859Z,87.24
2018-09-23T14:17:34.459Z,86.01
2018-09-23T14:20:04.006Z,86.47
2018-09-23T14:22:32.980Z,87.50
2018-09-23T14:25:02.170Z,87.67
2018-09-23T14:27:31.357Z,87.40
2018-09-23T14:30:00.269Z,87.20
2018-09-23T14:32:29.140Z,87.01
2018-09-23T14:34:58.589Z,86.96
2018-09-23T14:37:27.513Z,87.25
2018-09-23T14:39:56.436Z,87.85
2018-09-23T14:42:25.886Z,88.98
2018-09-23T14:44:55.666Z,88.29
2018-09-23T14:47:25.056Z,87.01
2018-09-23T14:49:54.047Z,88.08
2018-09-23T14:52:22.888Z,87.92
2018-09-23T14:54:52.393Z,88.61
2018-09-23T14:57:21.241Z,88.78
2018-09-23T14:59:54.192Z,88.17
2018-09-23T15:02:20.084Z,88.87
2018-09-23T15:04:49.360Z,88.67
2018-09-23T15:07:18.239Z,88.62
2018-09-23T15:09:47.496Z,88.69
2018-09-23T15:12:16.777Z,88.45
2018-09-23T15:14:45.844Z,88.76
2018-09-23T15:17:14.814Z,89.63
2018-09-23T15:19:44.659Z,89.20
2018-09-23T15:22:14.075Z,89.31
2018-09-23T15:24:43.050Z,89.61
2018-09-23T15:27:12.355Z,89.10
2018-09-23T15:29:41.781Z,88.95
2018-09-23T15:32:11.661Z,88.55
2018-09-23T15:34:40.750Z,88.65
2018-09-23T15:37:09.885Z,88.71
2018-09-23T15:39:38.700Z,89.21
2018-09-23T15:42:08.069Z,89.45
2018-09-23T15:44:37.029Z,89.21
2018-09-23T15:47:06.412Z,89.48
2018-09-23T15:49:35.553Z,89.84
2018-09-23T15:52:04.503Z,89.36
2018-09-23T15:54:33.541Z,88.21
2018-09-23T15:57:02.450Z,87.16
2018-09-23T15:59:31.249Z,87.42
2018-09-23T16:02:00.325Z,86.88
2018-09-23T16:04:29.498Z,87.30
2018-09-23T16:09:36.494Z,88.15
2018-09-23T16:12:05.555Z,89.05
2018-09-23T16:14:34.390Z,87.94
2018-09-23T16:17:03.521Z,87.47
2018-09-23T16:19:32.712Z,88.05
2018-09-23T16:22:01.987Z,88.90
2018-09-23T16:24:31.712Z,89.01
2018-09-23T16:27:01.113Z,88.99
2018-09-23T16:29:30.091Z,89.56
2018-09-23T16:31:59.014Z,88.68
2018-09-23T16:34:28.618Z,88.67
2018-09-23T16:36:57.656Z,88.68
2018-09-23T16:39:26.438Z,88.24
2018-09-23T16:41:55.533Z,88.68
2018-09-23T16:44:24.388Z,87.75
2018-09-23T16:46:53.275Z,87.89
2018-09-23T16:49:22.117Z,88.10
2018-09-23T16:51:50.870Z,88.27
2018-09-23T16:54:19.862Z,87.46
2018-09-23T16:56:49.672Z,87.79
2018-09-23T16:59:18.441Z,87.74
2018-09-23T17:01:47.287Z,87.36
2018-09-23T17:04:17.105Z,87.47
2018-09-23T17:06:47.312Z,88.14
2018-09-23T17:09:16.093Z,88.90
2018-09-23T17:11:44.897Z,88.63
2018-09-23T17:14:14.018Z,88.35
2018-09-23T17:16:42.874Z,88.11
2018-09-23T17:19:12.178Z,88.47
2018-09-23T17:21:43.952Z,88.36
2018-09-23T17:24:12.821Z,87.82
2018-09-23T17:26:41.533Z,89.11
2018-09-23T17:29:10.287Z,88.32
2018-09-23T17:31:39.178Z,88.58
2018-09-23T17:34:08.647Z,88.92
2018-09-23T17:36:37.418Z,87.12
2018-09-23T17:39:09.727Z,87.24
2018-09-23T17:41:38.846Z,86.96
2018-09-23T17:44:07.853Z,86.90
2018-09-23T17:46:39.853Z,88.13
2018-09-23T17:49:09.145Z,88.67
2018-09-23T17:51:37.996Z,87.13
2018-09-23T17:54:07.298Z,86.94
2018-09-23T17:56:36.242Z,86.87
2018-09-23T17:59:05.236Z,87.32
2018-09-23T18:01:34.562Z,87.81
2018-09-23T18:04:03.908Z,88.05
2018-09-23T18:06:32.748Z,86.27
2018-09-23T18:09:01.620Z,86.50
2018-09-23T18:11:30.462Z,86.99
2018-09-23T18:13:59.872Z,88.10
2018-09-23T18:16:28.656Z,87.70
2018-09-23T18:18:57.422Z,87.54
2018-09-23T18:21:26.289Z,88.36
2018-09-23T18:23:55.542Z,88.13
2018-09-23T18:26:25.057Z,88.39
2018-09-23T18:28:54.247Z,88.52
2018-09-23T18:31:23.097Z,87.63
2018-09-23T18:33:51.923Z,87.38
2018-09-23T18:36:20.953Z,85.14
2018-09-23T18:38:49.887Z,85.14
2018-09-23T18:41:19.074Z,86.19
2018-09-23T18:43:48.426Z,86.65
2018-09-23T18:46:17.669Z,87.19
2018-09-23T18:48:46.478Z,87.12
2018-09-23T18:51:15.467Z,87.35
2018-09-23T18:53:49.578Z,86.55
2018-09-23T18:56:18.985Z,86.53
2018-09-23T18:58:48.944Z,86.21
2018-09-23T19:01:17.994Z,86.20
2018-09-23T19:03:47.062Z,85.63
2018-09-23T19:06:16.466Z,86.33
2018-09-23T19:08:46.024Z,87.33
2018-09-23T19:11:15.019Z,87.24
2018-09-23T19:13:49.024Z,86.83
2018-09-23T19:16:23.005Z,87.37
2018-09-23T19:18:51.791Z,86.78
2018-09-23T19:21:20.803Z,86.78
2018-09-23T19:23:49.879Z,86.58
2018-09-23T19:26:19.064Z,86.90
2018-09-23T19:28:48.097Z,86.73
2018-09-23T19:31:17.179Z,87.17
2018-09-23T19:33:46.348Z,86.83
2018-09-23T19:36:15.359Z,86.89
2018-09-23T19:38:44.457Z,86.44
2018-09-23T19:41:13.528Z,86.76
2018-09-23T19:43:42.608Z,87.02
2018-09-23T19:46:11.644Z,87.10
2018-09-23T19:48:40.510Z,86.92
2018-09-23T19:51:09.406Z,86.75
2018-09-23T19:53:38.786Z,86.54
2018-09-23T19:56:08.344Z,86.52
2018-09-23T19:58:37.538Z,87.18
2018-09-23T20:01:07.525Z,87.17
2018-09-23T20:03:37.237Z,87.27
2018-09-23T20:06:06.820Z,87.11
2018-09-23T20:08:36.272Z,86.96
2018-09-23T20:11:06.118Z,87.06
2018-09-23T20:13:35.038Z,87.23
2018-09-23T20:16:05.542Z,87.34
2018-09-23T20:18:35.362Z,87.34
2018-09-23T20:21:04.839Z,87.08
2018-09-23T20:23:34.061Z,87.53
2018-09-23T20:26:03.234Z,87.24
2018-09-23T20:28:32.208Z,87.12
2018-09-23T20:31:01.631Z,87.90
2018-09-23T20:33:31.128Z,87.39
2018-09-23T20:36:00.389Z,87.06
2018-09-23T20:38:29.916Z,87.40
2018-09-23T20:40:59.030Z,86.60
2018-09-23T20:43:28.019Z,87.08
2018-09-23T20:45:57.327Z,87.40
2018-09-23T20:48:26.743Z,86.57
2018-09-23T20:50:55.743Z,86.82
2018-09-23T20:53:24.550Z,87.00
2018-09-23T20:55:53.596Z,86.77
2018-09-23T20:58:22.534Z,87.31
2018-09-23T21:00:51.431Z,87.14
2018-09-23T21:03:20.399Z,86.34
2018-09-23T21:05:49.572Z,86.47
2018-09-23T21:08:19.086Z,86.70
2018-09-23T21:10:48.378Z,86.65
2018-09-23T21:13:17.211Z,86.63
2018-09-23T21:15:46.360Z,86.63
2018-09-23T21:18:15.456Z,86.62
2018-09-23T21:20:45.120Z,86.79
2018-09-23T21:23:13.866Z,85.82
2018-09-23T21:25:45.573Z,85.27
2018-09-23T21:28:14.441Z,85.61
2018-09-23T21:30:43.292Z,85.45
2018-09-23T21:33:12.196Z,86.15
2018-09-23T21:35:41.133Z,85.83
2018-09-23T21:38:09.982Z,86.73
2018-09-23T21:40:45.355Z,86.64
2018-09-23T21:43:14.201Z,85.49
2018-09-23T21:45:44.138Z,86.26
2018-09-23T21:48:13.091Z,86.30
2018-09-23T21:50:42.205Z,87.10
2018-09-23T21:53:11.303Z,86.81
2018-09-23T21:55:40.509Z,87.07
2018-09-23T21:58:09.511Z,87.40
2018-09-23T22:00:43.536Z,87.75
2018-09-23T22:03:14.343Z,87.24
2018-09-23T22:05:43.443Z,87.32
2018-09-23T22:08:14.008Z,88.16
2018-09-23T22:10:43.981Z,88.55
2018-09-23T22:13:12.806Z,88.23
2018-09-23T22:15:41.879Z,88.47
2018-09-23T22:18:10.963Z,88.43
2018-09-23T22:20:39.865Z,88.68
2018-09-23T22:23:08.678Z,88.84
2018-09-23T22:25:37.591Z,88.39
2018-09-23T22:28:06.738Z,88.96
2018-09-23T22:30:35.927Z,88.19
2018-09-23T22:33:04.824Z,88.58
2018-09-23T22:35:33.711Z,88.78
2018-09-23T22:38:02.597Z,88.56
2018-09-23T22:40:31.738Z,87.73
2018-09-23T22:43:01.737Z,88.20
2018-09-23T22:45:30.813Z,88.25
2018-09-23T22:47:59.709Z,88.08
2018-09-23T22:50:28.583Z,87.67
2018-09-23T22:52:57.587Z,88.07
2018-09-23T22:55:26.473Z,87.70
2018-09-23T22:57:55.605Z,87.59
2018-09-23T23:00:24.604Z,87.19
2018-09-23T23:02:53.460Z,86.32
2018-09-23T23:05:22.428Z,86.62
2018-09-23T23:07:51.540Z,86.66
2018-09-23T23:10:20.363Z,86.70
2018-09-23T23:12:49.411Z,87.26
2018-09-23T23:15:18.294Z,87.01
2018-09-23T23:17:47.283Z,86.72
2018-09-23T23:20:16.578Z,86.46
2018-09-23T23:22:45.594Z,86.62
2018-09-23T23:25:14.356Z,86.71
2018-09-23T23:27:43.386Z,88.00
2018-09-23T23:30:12.448Z,87.23
2018-09-23T23:32:41.425Z,86.53
2018-09-23T23:35:10.481Z,87.17
2018-09-23T23:37:39.434Z,87.43
2018-09-23T23:40:08.771Z,87.54
2018-09-23T23:42:37.711Z,87.06
2018-09-23T23:45:06.605Z,86.80
2018-09-23T23:47:35.394Z,86.92
2018-09-23T23:50:04.232Z,86.26
2018-09-23T23:52:33.837Z,86.96
2018-09-23T23:55:02.891Z,87.61
2018-09-23T23:57:31.742Z,87.64
